Time;durP1;ratioP1;P1;durP2;ratioP2;P2;SDS_P1;SDS_P2;PMS_P1;PMS_P2;Temp;Humidity;BMP_temperature;BMP_pressure;BME280_temperature;BME280_humidity;BME280_pressure;Samples;Min_cycle;Max_cycle;Signal;HPM_P1;HPM_P2
2023/07/27 00:04:50;;;;;;;4.37;2.83;;;;;;;17.50;64.88;98951.81;7250542;40;20350;31
2023/07/27 00:15:29;;;;;;;4.63;2.67;;;;;;;17.43;64.61;98938.22;7255354;40;20267;31
2023/07/27 00:26:09;;;;;;;5.25;2.60;;;;;;;17.34;65.70;98933.22;7217978;40;20282;31
2023/07/27 00:31:30;;;;;;;4.50;2.80;;;;;;;17.26;65.62;98919.84;7210740;40;20373;31
2023/07/27 00:36:50;;;;;;;3.85;2.70;;;;;;;17.23;65.67;98925.75;7218903;40;20277;31
2023/07/27 00:47:42;;;;;;;4.33;2.57;;;;;;;17.16;66.29;98909.41;7250935;39;20376;31
2023/07/27 00:58:07;;;;;;;3.45;2.60;;;;;;;17.26;66.54;98892.62;7242961;40;20304;31
2023/07/27 01:03:40;;;;;;;3.93;2.73;;;;;;;17.25;66.24;98888.22;7255767;40;20360;31
2023/07/27 01:09:15;;;;;;;5.10;3.10;;;;;;;17.21;66.58;98884.25;7200320;40;20258;31
2023/07/27 01:14:47;;;;;;;5.03;2.40;;;;;;;17.31;66.30;98871.00;7212115;40;21396;31
2023/07/27 01:20:23;;;;;;;3.80;2.73;;;;;;;17.30;66.98;98870.16;7212954;40;20254;31
2023/07/27 01:26:04;;;;;;;7.03;2.97;;;;;;;17.33;66.42;98855.28;7256748;39;20245;31
2023/07/27 01:31:41;;;;;;;5.20;2.80;;;;;;;17.31;66.23;98857.37;7235055;40;20260;31
2023/07/27 01:37:11;;;;;;;5.40;2.70;;;;;;;17.25;66.58;98850.91;7244611;40;20302;31
2023/07/27 01:42:46;;;;;;;2.73;2.50;;;;;;;17.32;66.90;98849.00;7079882;40;20589;31
2023/07/27 01:48:23;;;;;;;3.37;2.20;;;;;;;17.37;66.89;98842.91;7219804;40;20273;31
2023/07/27 01:53:55;;;;;;;3.70;2.60;;;;;;;17.29;68.26;98837.72;7210264;40;20261;31
2023/07/27 01:59:30;;;;;;;3.60;2.80;;;;;;;17.15;68.90;98842.41;7133773;40;21222;31
2023/07/27 02:05:03;;;;;;;2.80;2.50;;;;;;;17.15;67.68;98822.50;7164133;40;20254;31
2023/07/27 02:10:35;;;;;;;3.70;2.50;;;;;;;17.25;68.29;98820.09;7171442;40;20276;31
2023/07/27 02:16:07;;;;;;;2.93;2.47;;;;;;;17.31;68.43;98820.09;7164179;40;20264;31
2023/07/27 02:21:43;;;;;;;2.90;2.60;;;;;;;17.36;67.63;98803.09;7181960;40;20412;31
2023/07/27 02:27:19;;;;;;;4.27;2.60;;;;;;;17.24;68.32;98802.13;7179056;40;20304;31
2023/07/27 02:37:57;;;;;;;3.35;2.60;;;;;;;17.29;68.92;98772.34;7193101;40;20273;31
2023/07/27 02:43:32;;;;;;;3.17;2.67;;;;;;;17.28;68.45;98766.03;7208779;40;20452;31
2023/07/27 02:48:49;;;;;;;5.90;2.40;;;;;;;17.32;68.04;98770.00;7276522;39;20345;31
2023/07/27 02:54:22;;;;;;;5.13;2.87;;;;;;;17.34;68.22;98780.66;7234383;40;20277;31
2023/07/27 03:05:01;;;;;;;3.32;2.82;;;;;;;17.39;68.74;98778.09;7253538;40;20312;31
2023/07/27 03:15:41;;;;;;;4.98;2.58;;;;;;;17.44;69.04;98765.50;7192436;40;20281;31
2023/07/27 03:26:24;;;;;;;3.30;2.70;;;;;;;17.48;68.52;98766.72;7187701;40;20300;31
2023/07/27 03:37:04;;;;;;;3.52;2.44;;;;;;;17.46;68.50;98768.81;7263190;39;20361;31
2023/07/27 03:47:29;;;;;;;2.84;2.34;;;;;;;17.44;68.78;98764.66;7275426;40;20275;31
2023/07/27 03:58:07;;;;;;;3.60;2.50;;;;;;;17.50;68.52;98751.00;7282879;39;21235;31
2023/07/27 04:08:46;;;;;;;4.70;2.90;;;;;;;17.53;69.20;98752.44;7293614;40;20269;31
2023/07/27 04:14:22;;;;;;;6.57;2.90;;;;;;;17.52;69.51;98743.41;7234650;40;20319;31
2023/07/27 04:19:57;;;;;;;3.30;2.30;;;;;;;17.58;69.86;98741.75;7190014;40;20422;31
2023/07/27 04:25:29;;;;;;;4.27;2.40;;;;;;;17.60;70.17;98736.88;7195831;40;20246;31
2023/07/27 04:31:02;;;;;;;4.27;2.47;;;;;;;17.60;69.93;98738.78;7173248;40;20361;31
2023/07/27 04:36:34;;;;;;;4.37;2.60;;;;;;;17.62;70.46;98728.50;7180322;40;20259;31
2023/07/27 04:41:54;;;;;;;4.80;2.70;;;;;;;17.63;69.73;98736.47;7195995;40;20280;31
2023/07/27 04:47:27;;;;;;;3.95;2.60;;;;;;;17.59;70.71;98737.13;7186504;40;20262;31
2023/07/27 04:52:59;;;;;;;3.50;2.30;;;;;;;17.64;70.41;98723.66;7201803;40;21391;31
2023/07/27 04:58:31;;;;;;;3.27;2.50;;;;;;;17.69;70.37;98724.66;7180947;40;20245;31
2023/07/27 05:04:02;;;;;;;3.23;2.13;;;;;;;17.72;70.52;98726.94;7224583;40;20246;31
2023/07/27 05:09:22;;;;;;;3.65;2.40;;;;;;;17.70;70.04;98722.75;7225434;40;20265;31
2023/07/27 05:14:54;;;;;;;3.03;2.23;;;;;;;17.61;70.83;98711.31;7218819;40;20360;31
2023/07/27 05:20:28;;;;;;;2.43;2.20;;;;;;;17.65;71.17;98717.12;7203440;40;20253;31
2023/07/27 05:25:58;;;;;;;4.17;2.40;;;;;;;17.67;70.77;98706.84;7213104;40;20254;31
2023/07/27 05:31:16;;;;;;;4.10;2.70;;;;;;;17.67;71.46;98715.03;7156600;40;22271;31
2023/07/27 05:36:49;;;;;;;3.33;2.40;;;;;;;17.71;71.77;98710.81;7144127;40;20247;31
2023/07/27 05:42:25;;;;;;;6.80;2.43;;;;;;;17.73;72.38;98714.97;7185446;40;20266;31
2023/07/27 05:47:57;;;;;;;3.13;2.50;;;;;;;17.78;71.94;98703.38;7212089;40;20268;31
2023/07/27 05:53:33;;;;;;;4.15;2.75;;;;;;;17.79;72.06;98694.16;7253899;40;21371;31
2023/07/27 05:59:05;;;;;;;3.73;2.90;;;;;;;17.77;72.83;98688.09;7245196;40;20277;31
2023/07/27 06:04:28;;;;;;;4.20;3.08;;;;;;;17.61;74.10;98678.59;7104818;40;21061;31
2023/07/27 06:10:04;;;;;;;6.53;2.80;;;;;;;17.51;74.70;98698.16;7145843;40;20262;31
2023/07/27 06:15:36;;;;;;;3.55;2.62;;;;;;;17.48;74.73;98703.22;7145183;40;21323;31
2023/07/27 06:21:08;;;;;;;3.70;2.53;;;;;;;17.49;75.15;98713.06;7133513;40;20255;31
2023/07/27 06:26:42;;;;;;;2.97;2.50;;;;;;;17.47;75.16;98704.25;7134327;40;20265;31
2023/07/27 06:32:19;;;;;;;3.65;2.80;;;;;;;17.51;75.77;98697.31;7166894;40;20336;31
2023/07/27 06:37:37;;;;;;;5.53;2.70;;;;;;;17.50;74.91;98701.94;7214774;40;20269;31
2023/07/27 06:43:09;;;;;;;6.13;3.20;;;;;;;17.49;75.94;98713.06;7256387;40;20251;31
2023/07/27 06:48:41;;;;;;;3.50;2.70;;;;;;;17.55;75.03;98696.63;7202667;40;20266;31
2023/07/27 06:54:02;;;;;;;4.40;2.60;;;;;;;17.61;75.32;98694.94;7235409;40;20271;31
2023/07/27 06:59:34;;;;;;;3.10;2.80;;;;;;;17.61;75.71;98692.22;7234424;40;20397;31
2023/07/27 07:05:06;;;;;;;4.45;2.80;;;;;;;17.62;75.78;98690.34;7249680;40;20339;31
2023/07/27 07:10:38;;;;;;;3.95;2.60;;;;;;;17.68;76.38;98687.56;7226417;40;20371;31
2023/07/27 07:16:11;;;;;;;6.90;2.80;;;;;;;17.75;76.61;98685.59;7246381;40;20354;31
2023/07/27 07:21:43;;;;;;;6.90;2.85;;;;;;;17.77;76.62;98688.91;7223826;40;20254;31
2023/07/27 07:27:01;;;;;;;3.37;2.70;;;;;;;17.70;77.19;98671.81;7212687;40;20423;31
2023/07/27 07:32:33;;;;;;;3.30;2.60;;;;;;;17.68;77.49;98664.91;7226445;40;20251;31
2023/07/27 07:37:49;;;;;;;4.17;2.77;;;;;;;17.71;76.28;98659.00;7183280;40;20270;31
2023/07/27 07:43:18;;;;;;;4.07;2.70;;;;;;;17.70;77.06;98627.34;7214829;40;20268;31
2023/07/27 07:48:54;;;;;;;4.77;2.70;;;;;;;17.65;76.90;98619.84;7183592;40;20299;31
2023/07/27 07:54:12;;;;;;;4.63;2.70;;;;;;;17.61;76.66;98618.62;7217152;40;20346;31
2023/07/27 07:59:29;;;;;;;4.60;2.57;;;;;;;17.54;77.41;98634.19;7202861;40;20250;31
2023/07/27 08:05:02;;;;;;;5.90;3.40;;;;;;;17.48;77.60;98632.38;7198135;40;20345;31
2023/07/27 08:10:34;;;;;;;4.00;2.90;;;;;;;17.38;78.35;98660.13;7235710;40;20378;31
2023/07/27 08:16:06;;;;;;;3.80;3.03;;;;;;;17.42;77.44;98665.97;7177086;40;20269;31
2023/07/27 08:21:39;;;;;;;5.87;3.23;;;;;;;17.35;78.73;98676.91;7214664;40;20266;31
2023/07/27 08:26:56;;;;;;;4.63;2.70;;;;;;;17.41;77.62;98667.87;7153700;40;20350;31
2023/07/27 08:32:14;;;;;;;5.50;2.90;;;;;;;17.36;78.34;98661.41;6979382;40;21345;31
2023/07/27 08:37:47;;;;;;;4.70;2.60;;;;;;;17.31;77.87;98658.50;7216743;40;20361;31
2023/07/27 08:43:19;;;;;;;6.60;2.70;;;;;;;17.23;77.79;98654.19;7230763;40;20253;31
2023/07/27 08:48:54;;;;;;;3.43;2.50;;;;;;;17.20;78.22;98653.81;7246591;40;20319;31
2023/07/27 08:54:27;;;;;;;5.73;2.80;;;;;;;17.19;77.57;98646.69;7195655;40;20265;31
2023/07/27 08:59:59;;;;;;;3.73;2.70;;;;;;;17.25;77.75;98643.87;7202822;40;20273;31
2023/07/27 09:05:16;;;;;;;4.43;2.80;;;;;;;17.18;78.93;98632.22;7243130;40;20356;31
2023/07/27 09:10:49;;;;;;;4.33;3.10;;;;;;;17.30;78.17;98614.09;7271377;40;20497;31
2023/07/27 09:16:25;;;;;;;5.20;2.90;;;;;;;17.47;78.48;98611.63;7219867;40;20291;31
2023/07/27 09:27:05;;;;;;;4.90;2.62;;;;;;;17.77;78.55;98598.13;7229698;40;20312;31
2023/07/27 09:37:44;;;;;;;3.00;2.60;;;;;;;17.95;78.79;98589.91;7272056;40;20269;31
2023/07/27 09:48:24;;;;;;;4.37;2.70;;;;;;;18.23;78.12;98570.25;7283766;39;20304;31
2023/07/27 09:53:59;;;;;;;7.37;2.50;;;;;;;18.30;77.79;98568.25;7255938;40;20294;31
2023/07/27 09:59:34;;;;;;;3.50;2.70;;;;;;;18.43;77.29;98568.91;7241532;40;20348;31
2023/07/27 10:05:10;;;;;;;3.65;2.45;;;;;;;18.65;76.76;98561.06;7236868;40;20246;31
2023/07/27 10:10:54;;;;;;;4.20;2.45;;;;;;;18.79;76.47;98562.50;7204266;40;20344;31
2023/07/27 10:16:31;;;;;;;4.10;2.42;;;;;;;18.89;76.87;98557.31;7212042;40;20404;31
2023/07/27 10:22:07;;;;;;;4.10;2.35;;;;;;;19.03;76.04;98559.81;7185408;40;20276;31
2023/07/27 10:27:42;;;;;;;3.10;2.43;;;;;;;19.08;76.56;98552.59;7163983;40;20254;31
2023/07/27 10:33:20;;;;;;;5.20;2.30;;;;;;;19.07;76.71;98550.91;7197548;40;20257;31
2023/07/27 10:38:56;;;;;;;2.77;2.17;;;;;;;19.11;76.30;98552.09;7183099;40;20400;31
2023/07/27 10:44:31;;;;;;;3.30;2.27;;;;;;;19.05;76.57;98539.38;7212789;40;20254;31
2023/07/27 10:50:07;;;;;;;5.43;2.17;;;;;;;19.01;77.84;98537.34;7182907;40;20297;31
2023/07/27 10:55:42;;;;;;;4.97;2.43;;;;;;;18.95;77.52;98530.97;7172478;40;20248;31
2023/07/27 11:01:17;;;;;;;3.17;2.63;;;;;;;18.97;77.52;98537.00;7187891;40;20253;31
2023/07/27 11:06:55;;;;;;;4.97;2.57;;;;;;;18.90;79.18;98528.94;7190487;40;20280;31
2023/07/27 11:12:31;;;;;;;4.95;2.90;;;;;;;18.86;80.44;98535.09;7192936;40;20342;31
2023/07/27 11:18:06;;;;;;;4.70;2.35;;;;;;;18.88;79.86;98528.31;7155690;40;20251;31
2023/07/27 11:23:41;;;;;;;5.50;2.85;;;;;;;18.88;81.13;98524.75;7147977;40;20281;31
2023/07/27 11:29:17;;;;;;;4.93;3.10;;;;;;;18.90;81.94;98526.22;7140272;40;20282;31
2023/07/27 11:34:37;;;;;;;3.60;2.63;;;;;;;18.94;82.02;98521.09;7165381;40;20278;31
2023/07/27 11:45:19;;;;;;;3.97;2.40;;;;;;;19.03;83.31;98514.22;7246257;40;20362;31
2023/07/27 11:50:54;;;;;;;4.43;2.80;;;;;;;19.04;83.92;98504.12;7254850;40;20334;31
2023/07/27 11:56:14;;;;;;;3.30;2.60;;;;;;;18.99;83.69;98496.62;7218305;40;20351;31
2023/07/27 12:01:51;;;;;;;4.43;2.60;;;;;;;19.06;83.99;98493.78;7228336;40;20347;31
2023/07/27 12:12:15;;;;;;;3.70;2.90;;;;;;;19.26;83.76;98491.50;7240250;40;20358;31
2023/07/27 12:17:51;;;;;;;3.33;2.70;;;;;;;19.29;84.52;98489.12;7212132;40;20449;31
2023/07/27 12:23:26;;;;;;;3.80;2.77;;;;;;;19.30;84.68;98489.97;7198730;40;20272;31
2023/07/27 12:28:44;;;;;;;5.73;3.00;;;;;;;19.40;83.71;98492.06;7233179;40;20250;31
2023/07/27 12:34:16;;;;;;;5.20;3.00;;;;;;;19.41;83.93;98494.56;7223692;40;20250;31
2023/07/27 12:39:38;;;;;;;5.20;2.83;;;;;;;19.51;84.73;98488.53;7203860;40;20269;31
2023/07/27 12:44:56;;;;;;;5.07;2.40;;;;;;;19.51;83.87;98489.34;7231082;40;20287;31
2023/07/27 12:50:25;;;;;;;6.20;2.75;;;;;;;19.56;85.54;98491.37;7250583;40;20276;31
2023/07/27 12:56:01;;;;;;;3.60;2.50;;;;;;;19.57;84.36;98491.09;7197381;40;20231;31
2023/07/27 13:06:40;;;;;;;2.80;2.40;;;;;;;19.61;84.52;98488.75;7191349;40;20259;31
2023/07/27 13:12:16;;;;;;;2.80;2.30;;;;;;;19.69;84.16;98475.53;7203256;40;20256;31
2023/07/27 13:17:52;;;;;;;3.60;2.30;;;;;;;19.75;83.48;98482.72;7290125;39;20248;31
2023/07/27 13:23:27;;;;;;;3.83;2.30;;;;;;;19.70;83.68;98482.63;7249233;40;20258;31
2023/07/27 13:28:48;;;;;;;3.23;2.20;;;;;;;19.71;84.70;98473.34;7153310;40;20251;31
2023/07/27 13:34:08;;;;;;;3.33;2.10;;;;;;;19.72;85.38;98475.03;7166602;40;20281;31
2023/07/27 13:39:43;;;;;;;2.63;2.27;;;;;;;19.72;84.76;98468.72;7142617;40;20746;31
2023/07/27 13:45:19;;;;;;;6.18;2.25;;;;;;;19.79;85.52;98467.50;7155131;40;20270;31
2023/07/27 13:50:53;;;;;;;3.07;2.27;;;;;;;19.87;84.49;98470.94;7160883;40;20352;31
2023/07/27 13:56:30;;;;;;;2.73;2.20;;;;;;;19.84;85.24;98461.28;7216705;40;20332;31
2023/07/27 14:02:04;;;;;;;2.67;2.20;;;;;;;19.89;83.98;98474.25;7227054;40;20401;31
2023/07/27 14:07:39;;;;;;;2.50;2.20;;;;;;;19.89;85.47;98458.66;7201106;40;20282;31
2023/07/27 14:13:14;;;;;;;3.07;2.40;;;;;;;19.96;85.17;98448.41;7182348;40;20255;31
2023/07/27 14:18:49;;;;;;;2.67;2.10;;;;;;;20.05;85.48;98446.13;7177649;40;20348;31
2023/07/27 14:24:24;;;;;;;4.10;2.23;;;;;;;20.16;84.26;98450.69;7192353;40;20266;31
2023/07/27 14:29:58;;;;;;;3.77;2.43;;;;;;;20.31;85.67;98442.78;7213316;40;20253;31
2023/07/27 14:35:33;;;;;;;4.20;2.20;;;;;;;20.43;83.19;98432.59;7202163;40;20288;31
2023/07/27 14:41:08;;;;;;;3.17;2.20;;;;;;;20.59;84.38;98420.78;7162172;40;20273;31
2023/07/27 14:46:44;;;;;;;2.30;2.10;;;;;;;20.73;84.16;98423.19;7162816;40;20362;31
2023/07/27 14:52:16;;;;;;;2.90;2.17;;;;;;;20.91;82.75;98406.47;7185124;40;20250;31
2023/07/27 14:57:48;;;;;;;3.40;2.20;;;;;;;21.05;82.63;98405.03;7195011;40;20246;31
2023/07/27 15:03:21;;;;;;;3.12;2.12;;;;;;;21.13;81.39;98407.34;7026894;40;21375;31
2023/07/27 15:08:56;;;;;;;3.10;2.20;;;;;;;21.26;81.41;98403.41;7095942;41;20268;31
2023/07/27 15:14:30;;;;;;;3.20;2.20;;;;;;;21.32;81.89;98403.22;7118213;41;20263;31
2023/07/27 15:20:01;;;;;;;3.65;2.30;;;;;;;21.41;81.28;98400.87;7107403;41;20366;31
2023/07/27 15:25:36;;;;;;;2.77;2.30;;;;;;;21.45;80.22;98399.28;7176255;40;20367;31
2023/07/27 15:31:08;;;;;;;3.07;2.17;;;;;;;21.46;80.07;98389.94;7232255;40;20261;31
2023/07/27 15:36:41;;;;;;;4.30;2.60;;;;;;;21.48;78.91;98393.25;7222919;40;20262;31
2023/07/27 15:42:13;;;;;;;3.22;2.22;;;;;;;21.49;79.71;98390.28;7253874;40;20448;31
2023/07/27 15:47:48;;;;;;;4.33;2.57;;;;;;;21.54;78.68;98389.50;7238437;40;20353;31
2023/07/27 15:53:21;;;;;;;3.60;2.50;;;;;;;21.55;77.66;98402.94;7182805;40;20373;31
2023/07/27 15:58:56;;;;;;;4.15;2.80;;;;;;;21.58;77.53;98385.16;7176742;40;20310;31
2023/07/27 16:09:48;;;;;;;4.50;2.75;;;;;;;21.66;76.18;98370.97;7187953;40;21229;31
2023/07/27 16:20:22;;;;;;;3.30;2.70;;;;;;;21.81;75.02;98386.75;7256437;40;20452;31
2023/07/27 16:25:58;;;;;;;3.10;2.75;;;;;;;21.87;73.63;98378.34;7244909;40;20311;31
2023/07/27 16:31:30;;;;;;;3.20;2.90;;;;;;;22.00;72.84;98383.44;7255034;40;20274;31
2023/07/27 16:36:47;;;;;;;4.62;3.20;;;;;;;22.17;71.15;98387.97;7243795;40;20260;31
2023/07/27 16:42:23;;;;;;;4.66;3.48;;;;;;;22.23;70.68;98381.44;7213135;40;20254;31
2023/07/27 16:47:39;;;;;;;4.75;2.87;;;;;;;22.31;70.47;98381.78;7202588;40;20272;31
2023/07/27 16:58:17;;;;;;;3.53;3.20;;;;;;;22.29;68.75;98369.41;7212264;40;20355;31
2023/07/27 17:08:56;;;;;;;4.05;2.90;;;;;;;22.19;66.51;98381.12;7331881;39;20268;31
2023/07/27 17:19:33;;;;;;;4.50;2.94;;;;;;;22.05;65.93;98382.66;7298611;39;20295;31
2023/07/27 17:29:55;;;;;;;5.22;2.90;;;;;;;22.04;65.97;98389.22;7237295;40;20272;31
2023/07/27 17:35:26;;;;;;;4.65;2.70;;;;;;;22.01;65.83;98395.25;7255815;40;20265;31
2023/07/27 17:40:43;;;;;;;3.87;2.77;;;;;;;22.00;66.10;98407.31;7247243;40;20288;31
2023/07/27 17:46:16;;;;;;;3.47;2.70;;;;;;;21.99;66.83;98402.91;7251628;40;21276;31
2023/07/27 17:56:52;;;;;;;3.75;2.62;;;;;;;21.94;67.19;98408.31;7224198;40;21188;31
2023/07/27 18:02:09;;;;;;;2.80;2.43;;;;;;;21.88;66.94;98409.34;7188298;40;20316;31
2023/07/27 18:12:55;;;;;;;3.20;2.50;;;;;;;21.68;67.41;98418.16;7234080;40;21271;31
2023/07/27 18:18:12;;;;;;;3.22;2.58;;;;;;;21.56;68.99;98415.59;7182037;40;20277;31
2023/07/27 18:23:47;;;;;;;2.67;2.30;;;;;;;21.44;68.98;98428.59;7205686;40;20301;31
2023/07/27 18:29:18;;;;;;;2.90;2.40;;;;;;;21.37;70.61;98408.75;7252697;40;20285;31
2023/07/27 18:34:50;;;;;;;3.50;2.45;;;;;;;21.31;71.35;98423.50;7213521;40;20265;31
2023/07/27 18:40:12;;;;;;;2.75;2.40;;;;;;;21.23;71.54;98414.91;7190474;40;20400;31
2023/07/27 18:46:05;;;;;;;4.95;2.30;;;;;;;21.15;71.97;98416.13;7131631;40;21885;31
2023/07/27 18:51:23;;;;;;;3.20;2.20;;;;;;;21.12;73.03;98422.09;7153760;40;20349;31
2023/07/27 18:56:40;;;;;;;2.70;2.08;;;;;;;21.09;73.26;98417.13;7181769;40;20391;31
2023/07/27 19:07:15;;;;;;;2.50;2.30;;;;;;;20.97;73.83;98424.66;7274341;39;21240;31
2023/07/27 19:12:47;;;;;;;3.50;2.33;;;;;;;20.94;73.94;98431.44;7255323;40;20287;31
2023/07/27 19:18:05;;;;;;;3.10;2.30;;;;;;;20.87;74.04;98417.09;7213318;40;20249;31
2023/07/27 19:23:36;;;;;;;2.60;2.10;;;;;;;20.86;72.95;98429.16;7213668;40;20266;31
2023/07/27 19:28:57;;;;;;;3.95;2.40;;;;;;;20.82;74.02;98429.91;7194589;40;20266;31
2023/07/27 19:34:15;;;;;;;3.45;2.25;;;;;;;20.81;73.63;98441.94;7216411;40;20253;31
2023/07/27 19:40:00;;;;;;;3.92;2.20;;;;;;;20.75;72.59;98435.56;7253009;40;21127;31
2023/07/27 19:50:22;;;;;;;2.73;2.40;;;;;;;20.81;73.64;98444.66;7273072;40;20330;31
2023/07/27 19:55:54;;;;;;;2.90;2.20;;;;;;;20.74;73.13;98449.50;7281912;39;20244;31
2023/07/27 20:01:12;;;;;;;3.08;2.50;;;;;;;20.70;74.33;98438.22;7270995;39;20366;31
2023/07/27 20:06:29;;;;;;;3.20;2.40;;;;;;;20.67;74.32;98447.75;7275092;40;20252;31
2023/07/27 20:12:01;;;;;;;2.40;2.20;;;;;;;20.61;73.39;98443.28;7258306;40;20295;31
2023/07/27 20:17:22;;;;;;;2.73;2.30;;;;;;;20.61;74.77;98440.56;7197550;40;22390;31
2023/07/27 20:22:42;;;;;;;3.73;2.40;;;;;;;20.59;74.15;98439.97;7233013;40;20414;31
2023/07/27 20:28:15;;;;;;;2.60;2.40;;;;;;;20.57;74.47;98449.50;7215415;40;20335;31
2023/07/27 20:33:46;;;;;;;2.80;2.40;;;;;;;20.53;75.20;98437.41;7224731;40;20392;31
2023/07/27 20:39:04;;;;;;;3.60;2.50;;;;;;;20.52;76.11;98433.00;7267028;39;20389;31
2023/07/27 20:44:37;;;;;;;3.10;2.27;;;;;;;20.47;77.01;98420.06;7293470;39;20263;31
2023/07/27 20:50:10;;;;;;;3.05;2.20;;;;;;;20.46;75.89;98432.06;7255339;40;20273;31
2023/07/27 20:55:46;;;;;;;2.90;2.03;;;;;;;20.41;76.71;98428.41;7224228;40;21774;31
2023/07/27 21:01:19;;;;;;;3.40;2.60;;;;;;;20.34;77.94;98439.53;7132779;40;22185;31
2023/07/27 21:11:58;;;;;;;2.97;2.65;;;;;;;20.33;77.14;98437.03;7154191;40;20339;31
2023/07/27 21:17:31;;;;;;;3.40;2.42;;;;;;;20.31;77.95;98434.56;7188082;40;20254;31
2023/07/27 21:22:51;;;;;;;3.00;2.50;;;;;;;20.33;77.18;98437.87;7148247;40;20259;31
2023/07/27 21:33:31;;;;;;;2.50;2.28;;;;;;;20.30;77.47;98435.66;7180444;40;20293;31
2023/07/27 21:43:55;;;;;;;5.00;2.90;;;;;;;20.29;77.61;98414.78;7240088;40;20389;31
2023/07/27 21:54:33;;;;;;;2.70;2.50;;;;;;;20.25;78.56;98424.56;7321165;39;20268;31
2023/07/27 22:00:08;;;;;;;2.60;2.40;;;;;;;20.23;78.75;98432.19;7291992;39;20299;31
2023/07/27 22:10:46;;;;;;;2.60;2.30;;;;;;;20.16;79.82;98415.94;7233154;40;20258;31
2023/07/27 22:16:04;;;;;;;3.05;2.40;;;;;;;20.23;79.10;98423.97;7279151;40;20271;31
2023/07/27 22:21:21;;;;;;;3.23;2.40;;;;;;;20.23;78.46;98424.81;7093619;39;21442;31
2023/07/27 22:26:54;;;;;;;2.90;2.55;;;;;;;20.20;78.94;98413.53;7293136;40;20280;31
2023/07/27 22:32:26;;;;;;;4.25;2.55;;;;;;;20.22;79.20;98414.13;7250591;40;20366;31
2023/07/27 22:37:46;;;;;;;4.25;2.20;;;;;;;20.19;80.21;98415.44;7223923;40;20387;31
2023/07/27 22:43:19;;;;;;;3.27;2.37;;;;;;;20.18;79.19;98423.91;7256823;40;20362;31
2023/07/27 22:48:54;;;;;;;2.63;2.43;;;;;;;20.21;78.78;98418.78;7205262;40;20359;31
2023/07/27 22:59:34;;;;;;;3.13;2.20;;;;;;;20.19;79.83;98399.00;7199599;40;20374;31
2023/07/27 23:04:54;;;;;;;2.63;2.30;;;;;;;20.21;79.01;98407.81;7221109;40;20334;31
2023/07/27 23:15:34;;;;;;;2.30;2.07;;;;;;;20.22;79.42;98397.72;7315943;39;20394;31
2023/07/27 23:25:58;;;;;;;2.60;2.40;;;;;;;20.24;79.87;98420.16;7277079;40;20386;31
2023/07/27 23:36:34;;;;;;;2.47;1.83;;;;;;;20.24;79.11;98418.25;7329126;39;20259;31
2023/07/27 23:41:54;;;;;;;2.97;2.20;;;;;;;20.25;80.12;98408.16;7295558;40;20496;31
2023/07/27 23:52:34;;;;;;;2.37;2.17;;;;;;;20.20;80.86;98419.84;7271963;40;21143;31
